Time;durP1;ratioP1;P1;durP2;ratioP2;P2;SDS_P1;SDS_P2;PMS_P1;PMS_P2;Temp;Humidity;BMP_temperature;BMP_pressure;BME280_temperature;BME280_humidity;BME280_pressure;Samples;Min_cycle;Max_cycle;Signal;HPM_P1;HPM_P2
2021/05/26 00:00:15;;;;;;;6.18;1.92;;;;;;;11.26;62.58;100906.94;4737401;30;20099;-67
2021/05/26 00:02:41;;;;;;;6.47;2.15;;;;;;;11.23;62.72;100909.72;4737844;30;20528;-67
2021/05/26 00:05:07;;;;;;;5.13;1.90;;;;;;;11.19;62.71;100909.69;4737365;30;20059;-66
2021/05/26 00:07:32;;;;;;;5.15;1.60;;;;;;;11.14;62.86;100904.47;4737696;30;20041;-69
2021/05/26 00:09:58;;;;;;;3.00;1.42;;;;;;;11.11;63.19;100908.06;4737257;30;20417;-69
2021/05/26 00:12:23;;;;;;;4.03;1.70;;;;;;;11.07;63.25;100910.06;4751129;30;20065;-69
2021/05/26 00:14:48;;;;;;;3.67;1.35;;;;;;;11.04;63.22;100906.03;4737334;30;20036;-69
2021/05/26 00:17:14;;;;;;;5.20;2.10;;;;;;;11.00;63.35;100910.84;4750740;30;20418;-69
2021/05/26 00:19:42;;;;;;;6.70;1.75;;;;;;;10.97;63.32;100916.44;4737067;30;20033;-69
2021/05/26 00:22:08;;;;;;;3.20;1.80;;;;;;;10.92;63.80;100919.59;4737171;30;20057;-69
2021/05/26 00:24:33;;;;;;;2.88;1.58;;;;;;;10.85;64.24;100920.38;4737264;30;20493;-69
2021/05/26 00:26:58;;;;;;;2.10;1.80;;;;;;;10.80;64.15;100927.16;4737361;30;20028;-70
2021/05/26 00:29:24;;;;;;;6.50;1.52;;;;;;;10.74;64.24;100917.50;4737238;30;20059;-70
2021/05/26 00:31:49;;;;;;;5.22;1.88;;;;;;;10.67;64.34;100925.84;4737003;30;20361;-69
2021/05/26 00:34:14;;;;;;;3.40;1.75;;;;;;;10.60;64.67;100917.38;4736989;30;20418;-69
2021/05/26 00:36:40;;;;;;;5.45;2.05;;;;;;;10.53;64.96;100925.75;4737082;30;20060;-69
2021/05/26 00:39:05;;;;;;;2.85;1.85;;;;;;;10.45;65.28;100929.72;4737343;30;20041;-69
2021/05/26 00:41:32;;;;;;;3.67;1.80;;;;;;;10.39;65.21;100932.06;4736980;30;20311;-69
2021/05/26 00:43:57;;;;;;;3.83;1.45;;;;;;;10.32;65.73;100931.19;4737292;30;20029;-68
2021/05/26 00:46:23;;;;;;;2.55;1.50;;;;;;;10.22;66.31;100924.28;4737051;30;20385;-69
2021/05/26 00:48:49;;;;;;;4.60;1.58;;;;;;;10.15;66.15;100924.22;4750286;30;20381;-69
2021/05/26 00:51:14;;;;;;;7.85;1.50;;;;;;;10.07;66.69;100930.94;4736966;30;20029;-69
2021/05/26 00:53:40;;;;;;;3.80;1.50;;;;;;;10.02;66.41;100923.66;4736955;30;20039;-67
2021/05/26 00:56:06;;;;;;;3.45;1.50;;;;;;;10.00;66.50;100920.44;4736696;30;20430;-68
2021/05/26 00:58:32;;;;;;;3.85;1.98;;;;;;;9.95;67.54;100923.59;4736950;30;20329;-68
2021/05/26 01:00:57;;;;;;;4.72;1.52;;;;;;;9.91;67.28;100917.16;4738077;30;20036;-67
2021/05/26 01:03:23;;;;;;;3.50;1.58;;;;;;;9.85;67.67;100915.84;4753819;30;20086;-68
2021/05/26 01:05:48;;;;;;;6.13;1.80;;;;;;;9.83;67.84;100909.81;4740570;30;20043;-68
2021/05/26 01:08:14;;;;;;;4.20;1.60;;;;;;;9.84;67.57;100917.84;4740631;30;20025;-67
2021/05/26 01:10:40;;;;;;;3.05;1.77;;;;;;;9.87;67.53;100913.50;4740498;30;20160;-67
2021/05/26 01:13:06;;;;;;;3.53;1.50;;;;;;;9.86;67.35;100909.06;4740169;30;20430;-66
2021/05/26 01:15:32;;;;;;;3.35;1.65;;;;;;;9.82;67.53;100920.25;4740374;30;20115;-68
2021/05/26 01:18:17;;;;;;;3.58;1.40;;;;;;;9.76;67.58;100923.78;4740033;30;20036;-68
2021/05/26 01:20:42;;;;;;;3.20;1.48;;;;;;;9.71;67.79;100919.34;4740304;30;20037;-68
2021/05/26 01:23:08;;;;;;;7.90;1.55;;;;;;;9.66;68.48;100918.88;4753498;30;20115;-67
2021/05/26 01:25:33;;;;;;;3.50;1.48;;;;;;;9.59;68.39;100914.81;4753828;30;20044;-68
2021/05/26 01:27:59;;;;;;;4.60;1.92;;;;;;;9.54;68.69;100925.53;4739856;30;20033;-67
2021/05/26 01:30:24;;;;;;;3.55;1.70;;;;;;;9.48;69.08;100919.47;4739855;30;20033;-67
2021/05/26 01:32:51;;;;;;;5.55;1.60;;;;;;;9.41;69.37;100922.19;4740157;30;20036;-67
2021/05/26 01:35:17;;;;;;;8.60;1.85;;;;;;;9.35;69.15;100923.72;4739907;30;20035;-67
2021/05/26 01:37:44;;;;;;;2.83;1.45;;;;;;;9.31;69.26;100928.47;4738265;30;20446;-67
2021/05/26 01:40:12;;;;;;;3.25;1.45;;;;;;;9.25;69.68;100924.38;4739649;30;20447;-67
2021/05/26 01:42:37;;;;;;;6.20;1.60;;;;;;;9.20;69.29;100928.31;4753767;30;20052;-67
2021/05/26 01:45:07;;;;;;;6.60;1.75;;;;;;;9.15;69.77;100934.28;4753036;30;20374;-64
2021/05/26 01:47:33;;;;;;;3.78;1.70;;;;;;;9.12;70.21;100942.66;4739754;30;20036;-65
2021/05/26 01:49:59;;;;;;;6.68;2.20;;;;;;;9.07;70.26;100938.19;4739925;30;20040;-67
2021/05/26 01:52:24;;;;;;;6.90;2.50;;;;;;;9.06;70.53;100944.16;4739644;30;20429;-68
2021/05/26 01:54:50;;;;;;;4.63;1.63;;;;;;;9.07;69.83;100948.59;4739812;30;20422;-67
2021/05/26 01:57:15;;;;;;;5.25;1.80;;;;;;;9.04;69.39;100947.34;4737591;30;20147;-67
2021/05/26 01:59:41;;;;;;;5.20;2.25;;;;;;;9.02;69.83;100946.09;4739393;30;20048;-67
2021/05/26 02:02:06;;;;;;;4.50;1.90;;;;;;;8.94;69.97;100948.00;4739415;30;20040;-67
2021/05/26 02:04:33;;;;;;;3.33;1.75;;;;;;;8.90;69.75;100950.75;4739457;30;20035;-67
2021/05/26 02:07:08;;;;;;;4.15;1.75;;;;;;;8.84;69.49;100957.88;4753318;30;20035;-67
2021/05/26 02:09:37;;;;;;;3.90;1.67;;;;;;;8.78;70.28;100958.56;4739437;30;20024;-67
2021/05/26 02:12:23;;;;;;;3.78;1.80;;;;;;;8.74;70.28;100955.69;4739292;30;20156;-68
2021/05/26 02:14:55;;;;;;;15.50;3.05;;;;;;;8.72;70.35;100963.66;4738878;30;20047;-68
2021/05/26 02:17:22;;;;;;;3.83;1.65;;;;;;;8.75;70.31;100959.31;4739263;30;20032;-67
2021/05/26 02:19:51;;;;;;;6.10;1.80;;;;;;;8.71;70.05;100953.63;4739190;30;20033;-66
2021/05/26 02:22:17;;;;;;;5.60;3.00;;;;;;;8.67;70.09;100949.97;4738958;30;20052;-65
2021/05/26 02:24:44;;;;;;;3.65;1.90;;;;;;;8.59;69.93;100945.44;4739041;30;20186;-64
2021/05/26 02:27:09;;;;;;;4.28;2.08;;;;;;;8.51;70.26;100943.72;4752729;30;20028;-64
2021/05/26 02:29:36;;;;;;;4.38;2.50;;;;;;;8.46;70.01;100949.63;4738998;30;20350;-70
2021/05/26 02:32:02;;;;;;;5.57;1.80;;;;;;;8.41;70.37;100947.94;4738877;30;20075;-68
2021/05/26 02:34:28;;;;;;;5.78;2.30;;;;;;;8.33;70.47;100949.84;4752903;30;20028;-67
2021/05/26 02:36:53;;;;;;;11.05;2.05;;;;;;;8.28;70.61;100949.31;4739078;30;20379;-68
2021/05/26 02:39:19;;;;;;;6.20;2.42;;;;;;;8.23;70.90;100956.03;4738738;30;20044;-67
2021/05/26 02:41:44;;;;;;;7.18;2.20;;;;;;;8.21;70.59;100951.97;4738882;30;20422;-67
2021/05/26 02:44:10;;;;;;;4.40;1.70;;;;;;;8.18;70.92;100956.31;4738720;30;20056;-67
2021/05/26 02:46:36;;;;;;;4.55;1.90;;;;;;;8.14;70.34;100963.84;4738758;30;20071;-67
2021/05/26 02:49:04;;;;;;;3.80;1.95;;;;;;;8.09;71.04;100955.75;4752541;30;20049;-67
2021/05/26 02:51:29;;;;;;;4.35;1.88;;;;;;;8.05;71.00;100957.69;4739148;30;20033;-67
2021/05/26 02:53:55;;;;;;;3.97;2.10;;;;;;;8.04;70.84;100956.88;4752376;30;20105;-68
2021/05/26 02:56:20;;;;;;;2.75;1.92;;;;;;;8.02;70.91;100961.25;4738537;30;20041;-67
2021/05/26 02:58:45;;;;;;;4.45;2.42;;;;;;;7.98;71.09;100974.38;4738411;30;20075;-67
2021/05/26 03:01:11;;;;;;;5.60;2.42;;;;;;;7.95;71.17;100969.50;4738625;30;20044;-67
2021/05/26 03:03:36;;;;;;;5.65;2.85;;;;;;;7.91;71.61;100966.63;4738512;30;20119;-68
2021/05/26 03:06:02;;;;;;;6.47;2.50;;;;;;;7.92;71.51;100962.66;4738357;30;20368;-68
2021/05/26 03:08:27;;;;;;;5.90;2.78;;;;;;;7.91;71.23;100968.63;4752198;30;20422;-69
2021/05/26 03:10:56;;;;;;;5.28;2.25;;;;;;;7.88;71.06;100958.97;4738219;30;20048;-68
2021/05/26 03:13:23;;;;;;;7.28;2.28;;;;;;;7.87;71.38;100962.13;4751918;30;20035;-68
2021/05/26 03:15:48;;;;;;;18.73;3.08;;;;;;;7.87;71.57;100968.56;4738133;30;20070;-68
2021/05/26 03:18:14;;;;;;;6.72;3.30;;;;;;;7.86;71.33;100963.31;4737985;30;20120;-68
2021/05/26 03:20:39;;;;;;;9.05;2.83;;;;;;;7.82;71.16;100968.84;4738324;30;20142;-69
2021/05/26 03:23:05;;;;;;;8.15;2.65;;;;;;;7.78;71.78;100967.97;4751198;30;20072;-68
2021/05/26 03:25:30;;;;;;;5.82;2.30;;;;;;;7.79;71.54;100968.78;4751782;30;20043;-67
2021/05/26 03:27:56;;;;;;;9.65;2.40;;;;;;;7.81;71.79;100974.81;4737696;30;20055;-68
2021/05/26 03:30:21;;;;;;;12.70;3.85;;;;;;;7.83;71.83;100986.47;4738057;30;20025;-67
2021/05/26 03:32:47;;;;;;;11.80;3.75;;;;;;;7.84;71.59;100982.47;4737671;30;20346;-69
2021/05/26 03:35:14;;;;;;;12.77;4.40;;;;;;;7.88;71.97;100983.34;4736548;30;20029;-65
2021/05/26 03:37:40;;;;;;;11.73;3.60;;;;;;;7.89;71.99;100982.97;4737779;30;20043;-68
2021/05/26 03:40:08;;;;;;;10.52;4.30;;;;;;;7.93;72.15;100991.44;4737673;30;20060;-68
2021/05/26 03:42:34;;;;;;;9.15;4.38;;;;;;;7.97;72.02;100995.16;4737531;30;20028;-67
2021/05/26 03:44:59;;;;;;;12.38;4.78;;;;;;;8.04;72.36;100989.69;4737571;30;20381;-67
2021/05/26 03:47:25;;;;;;;8.13;3.17;;;;;;;8.09;72.47;100985.75;4737844;30;20108;-68
2021/05/26 03:49:50;;;;;;;9.32;3.28;;;;;;;8.12;72.48;100991.41;4737497;30;20036;-67
2021/05/26 03:52:15;;;;;;;11.15;3.70;;;;;;;8.18;72.83;100995.53;4737813;30;20044;-68
2021/05/26 03:54:40;;;;;;;6.28;2.58;;;;;;;8.25;72.83;100990.09;4737792;30;20409;-68
2021/05/26 03:57:06;;;;;;;7.50;2.70;;;;;;;8.32;72.24;100990.19;4737126;30;20052;-68
2021/05/26 03:59:32;;;;;;;7.40;2.80;;;;;;;8.41;72.80;101005.97;4736883;30;20036;-69
2021/05/26 04:01:57;;;;;;;9.20;3.40;;;;;;;8.49;71.99;100990.91;4737643;30;20032;-69
2021/05/26 04:04:23;;;;;;;11.27;3.33;;;;;;;8.58;72.18;100997.09;4737431;30;20115;-69
2021/05/26 04:06:49;;;;;;;10.73;3.97;;;;;;;8.66;71.75;100996.00;4737587;30;20680;-68
2021/05/26 04:09:14;;;;;;;8.05;4.10;;;;;;;8.75;72.14;101002.16;4750821;30;20103;-68
2021/05/26 04:11:41;;;;;;;7.88;3.85;;;;;;;8.86;71.51;100991.13;4737353;30;20032;-69
2021/05/26 04:14:06;;;;;;;8.82;3.13;;;;;;;8.94;71.04;100999.25;4737120;30;20040;-68
2021/05/26 04:16:32;;;;;;;6.57;3.20;;;;;;;9.05;71.10;100991.03;4737256;30;20024;-69
2021/05/26 04:18:57;;;;;;;6.47;3.03;;;;;;;9.14;71.52;100991.56;4737293;30;20036;-69
2021/05/26 04:21:23;;;;;;;6.97;2.90;;;;;;;9.25;71.70;100991.69;4750689;30;20028;-65
2021/05/26 04:23:48;;;;;;;7.50;2.60;;;;;;;9.34;71.77;100992.25;4737274;30;20037;-67
2021/05/26 04:26:13;;;;;;;6.65;3.45;;;;;;;9.43;71.24;100998.38;4736827;30;20087;-68
2021/05/26 04:28:43;;;;;;;8.02;3.70;;;;;;;9.52;71.10;100990.47;4737189;30;20521;-68
2021/05/26 04:31:13;;;;;;;7.50;3.28;;;;;;;9.62;71.63;100996.63;4735493;30;20032;-68
2021/05/26 04:33:39;;;;;;;7.85;2.95;;;;;;;9.69;71.39;101000.31;4737197;30;20064;-65
2021/05/26 04:36:05;;;;;;;8.57;3.00;;;;;;;9.80;71.35;100994.81;4736365;30;20163;-65
2021/05/26 04:38:31;;;;;;;6.50;3.05;;;;;;;9.90;71.18;100989.34;4731877;30;20041;-64
2021/05/26 04:40:56;;;;;;;7.65;2.92;;;;;;;9.99;71.42;101014.31;4736025;30;20036;-63
2021/05/26 04:43:22;;;;;;;7.85;3.55;;;;;;;10.05;71.01;101015.59;4736744;30;20416;-64
2021/05/26 04:45:47;;;;;;;9.60;3.60;;;;;;;10.12;70.54;101014.84;4737305;30;20029;-64
2021/05/26 04:48:13;;;;;;;9.13;3.38;;;;;;;10.19;70.48;101012.94;4736703;30;20162;-64
2021/05/26 04:50:38;;;;;;;9.65;4.20;;;;;;;10.31;70.13;101020.31;4736931;30;20329;-63
2021/05/26 04:53:03;;;;;;;9.55;4.25;;;;;;;10.42;69.83;101015.63;4735424;30;20100;-64
2021/05/26 04:55:29;;;;;;;12.63;5.05;;;;;;;10.53;69.51;101010.91;4735943;30;20059;-63
2021/05/26 04:58:05;;;;;;;11.75;5.45;;;;;;;10.65;68.91;101018.22;4734337;30;20033;-64
2021/05/26 05:00:31;;;;;;;16.30;5.65;;;;;;;10.74;69.14;101013.09;4736027;30;20683;-64
2021/05/26 05:02:57;;;;;;;16.27;5.60;;;;;;;10.84;68.55;101015.19;4736065;30;20036;-64
2021/05/26 05:05:23;;;;;;;11.52;5.10;;;;;;;10.95;68.09;101020.06;4736588;30;20120;-68
2021/05/26 05:07:48;;;;;;;11.60;5.00;;;;;;;11.02;68.03;101014.50;4748530;30;20033;-64
2021/05/26 05:10:14;;;;;;;7.63;3.10;;;;;;;11.09;67.07;101011.75;4736807;30;20036;-64
2021/05/26 05:12:39;;;;;;;9.13;3.13;;;;;;;11.20;66.95;101009.81;4736808;30;20024;-65
2021/05/26 05:15:06;;;;;;;9.07;3.58;;;;;;;11.29;66.30;101010.28;4735885;30;20326;-63
2021/05/26 05:17:31;;;;;;;8.00;3.10;;;;;;;11.37;65.47;101013.94;4736577;30;20457;-63
2021/05/26 05:19:57;;;;;;;13.70;3.08;;;;;;;11.46;66.13;101017.19;4736422;30;20036;-63
2021/05/26 05:22:23;;;;;;;8.48;3.13;;;;;;;11.51;65.11;101008.41;4735787;30;20091;-64
2021/05/26 05:24:48;;;;;;;30.52;4.65;;;;;;;11.60;65.59;101010.84;4736646;30;20033;-65
2021/05/26 05:27:14;;;;;;;20.50;3.60;;;;;;;11.70;66.16;101004.44;4750325;30;20028;-64
2021/05/26 05:29:39;;;;;;;9.48;3.00;;;;;;;11.77;64.60;101021.38;4736532;30;20024;-66
2021/05/26 05:32:05;;;;;;;12.55;3.03;;;;;;;11.88;65.24;101019.44;4736462;30;20087;-66
2021/05/26 05:34:30;;;;;;;4.53;2.30;;;;;;;11.94;64.29;101020.69;4736386;30;20036;-65
2021/05/26 05:36:56;;;;;;;8.85;2.65;;;;;;;12.01;63.86;101015.06;4736833;30;20114;-66
2021/05/26 05:39:21;;;;;;;9.98;2.72;;;;;;;12.11;64.82;101019.13;4735170;30;20452;-62
2021/05/26 05:41:47;;;;;;;6.97;2.80;;;;;;;12.22;65.63;101007.88;4744699;30;20037;-62
2021/05/26 05:44:13;;;;;;;14.45;2.90;;;;;;;12.34;64.20;101010.34;4750162;30;20033;-61
2021/05/26 05:46:38;;;;;;;7.65;3.17;;;;;;;12.44;63.18;101009.53;4736978;30;20025;-66
2021/05/26 05:49:04;;;;;;;4.90;2.25;;;;;;;12.50;63.08;101005.09;4739800;30;20425;-64
2021/05/26 05:51:29;;;;;;;10.32;2.22;;;;;;;12.59;63.41;101002.69;4739197;30;20048;-66
2021/05/26 05:53:55;;;;;;;6.70;2.20;;;;;;;12.68;62.86;101005.94;4739752;30;20032;-66
2021/05/26 05:56:20;;;;;;;6.57;2.08;;;;;;;12.80;63.54;101006.72;4739512;30;20253;-66
2021/05/26 05:58:45;;;;;;;8.02;2.40;;;;;;;12.91;61.79;101007.56;4753232;30;20037;-66
2021/05/26 06:01:11;;;;;;;3.05;1.70;;;;;;;12.98;61.45;101005.53;4739339;30;20036;-67
2021/05/26 06:03:36;;;;;;;7.38;1.90;;;;;;;13.06;61.09;101006.31;4739478;30;20039;-67
2021/05/26 06:06:02;;;;;;;4.53;1.98;;;;;;;13.15;61.44;101003.09;4753070;30;20041;-66
2021/05/26 06:08:27;;;;;;;4.70;1.70;;;;;;;13.22;60.88;101003.91;4738927;30;20045;-64
2021/05/26 06:10:53;;;;;;;6.13;1.90;;;;;;;13.29;60.99;101003.91;4738614;30;20056;-60
2021/05/26 06:13:18;;;;;;;8.27;2.17;;;;;;;13.40;60.40;101011.53;4738698;30;20322;-65
2021/05/26 06:15:44;;;;;;;7.13;2.33;;;;;;;13.48;59.89;101010.31;4752267;30;20115;-63
2021/05/26 06:18:09;;;;;;;3.72;1.85;;;;;;;13.55;61.25;101010.28;4738590;30;20029;-61
2021/05/26 06:20:35;;;;;;;6.45;1.90;;;;;;;13.65;60.96;101015.09;4738579;30;20029;-60
2021/05/26 06:23:00;;;;;;;12.80;2.22;;;;;;;13.75;60.56;101008.59;4738137;30;20060;-62
2021/05/26 06:25:26;;;;;;;4.18;1.45;;;;;;;13.86;60.14;101009.34;4752244;30;20046;-63
2021/05/26 06:27:52;;;;;;;4.25;1.88;;;;;;;13.96;58.80;101012.53;4738674;30;20048;-63
2021/05/26 06:30:17;;;;;;;3.85;2.05;;;;;;;14.04;57.98;101011.31;4738217;30;20084;-63
2021/05/26 06:32:43;;;;;;;4.20;1.67;;;;;;;14.14;59.86;101013.25;4738541;30;20028;-62
2021/05/26 06:35:09;;;;;;;6.28;2.47;;;;;;;14.22;58.10;101009.16;4751653;30;20040;-66
2021/05/26 06:37:34;;;;;;;11.85;3.28;;;;;;;14.29;57.82;101011.97;4738241;30;20440;-64
2021/05/26 06:40:00;;;;;;;11.77;2.20;;;;;;;14.37;58.60;101005.03;4738257;30;20036;-65
2021/05/26 06:42:25;;;;;;;5.28;1.88;;;;;;;14.44;56.71;101013.50;4736425;30;20040;-63
2021/05/26 06:44:51;;;;;;;7.85;2.15;;;;;;;14.52;57.34;101015.09;4737998;30;20087;-62
2021/05/26 06:47:17;;;;;;;7.53;1.58;;;;;;;14.62;57.08;101009.75;4738198;30;20433;-65
2021/05/26 06:49:42;;;;;;;5.50;1.77;;;;;;;14.71;56.68;101013.72;4751444;30;20040;-64
2021/05/26 06:52:07;;;;;;;2.53;1.45;;;;;;;14.78;56.89;101008.00;4738165;30;20052;-64
2021/05/26 06:54:33;;;;;;;6.28;2.20;;;;;;;14.89;57.21;101012.78;4737821;30;20036;-66
2021/05/26 06:57:00;;;;;;;7.47;2.28;;;;;;;14.97;57.91;100998.13;4738191;30;20025;-65
2021/05/26 06:59:26;;;;;;;5.85;2.00;;;;;;;15.06;57.04;101004.09;4737195;30;20037;-67
2021/05/26 07:01:51;;;;;;;5.30;1.73;;;;;;;15.17;56.39;101006.06;4734773;30;20036;-65
2021/05/26 07:04:16;;;;;;;2.33;1.60;;;;;;;15.23;55.80;101007.19;4731390;30;20060;-65
2021/05/26 07:06:42;;;;;;;8.25;2.17;;;;;;;15.30;54.89;100999.41;4737719;30;20044;-66
2021/05/26 07:09:08;;;;;;;3.35;1.80;;;;;;;15.33;53.97;100992.09;4738760;30;20078;-66
2021/05/26 07:11:33;;;;;;;8.30;1.70;;;;;;;15.32;53.23;100990.50;4738263;30;20033;-67
2021/05/26 07:13:59;;;;;;;6.85;2.47;;;;;;;15.39;54.19;100993.28;4737381;30;20028;-66
2021/05/26 07:16:24;;;;;;;5.20;1.50;;;;;;;15.42;53.83;100990.41;4737841;30;20445;-65
2021/05/26 07:18:50;;;;;;;4.85;1.48;;;;;;;15.44;52.38;100979.44;4738009;30;20411;-66
2021/05/26 07:21:16;;;;;;;7.18;2.20;;;;;;;15.52;51.59;100983.00;4738097;30;20410;-66
2021/05/26 07:23:41;;;;;;;5.05;1.65;;;;;;;15.54;52.04;100980.53;4738207;30;20082;-66
2021/05/26 07:26:07;;;;;;;3.72;1.65;;;;;;;15.56;52.83;100977.28;4737178;30;20029;-64
2021/05/26 07:28:33;;;;;;;5.47;2.40;;;;;;;15.61;53.30;100979.69;4738181;30;20025;-65
2021/05/26 07:30:58;;;;;;;5.60;1.50;;;;;;;15.67;53.62;100978.81;4738018;30;20033;-66
2021/05/26 07:33:23;;;;;;;3.80;1.52;;;;;;;15.71;52.07;100984.44;4737658;30;20029;-67
2021/05/26 07:35:49;;;;;;;3.45;1.52;;;;;;;15.76;52.40;100981.13;4737803;30;20370;-66
2021/05/26 07:38:14;;;;;;;7.18;1.38;;;;;;;15.80;51.62;100981.06;4737332;30;20511;-66
2021/05/26 07:40:39;;;;;;;5.70;1.30;;;;;;;15.87;52.00;100969.63;4737791;30;20080;-67
2021/05/26 07:43:05;;;;;;;4.50;1.45;;;;;;;15.98;52.19;100976.00;4737367;30;20032;-67
2021/05/26 07:45:30;;;;;;;5.50;1.20;;;;;;;16.05;50.86;100971.00;4737562;30;20119;-65
2021/05/26 07:47:56;;;;;;;2.42;0.95;;;;;;;16.14;50.96;100976.16;4737658;30;20040;-65
2021/05/26 07:50:21;;;;;;;3.03;1.30;;;;;;;16.23;50.93;100981.31;4737049;30;20052;-65
2021/05/26 07:52:46;;;;;;;2.95;1.33;;;;;;;16.28;49.13;100967.44;4736156;30;20036;-64
2021/05/26 07:55:12;;;;;;;2.53;1.30;;;;;;;16.38;51.75;100969.31;4736892;30;20106;-65
2021/05/26 07:57:38;;;;;;;5.45;1.67;;;;;;;16.44;49.68;100966.81;4737420;30;20049;-66
2021/05/26 08:00:06;;;;;;;2.17;0.85;;;;;;;16.47;46.67;100956.63;4737158;30;20041;-65
2021/05/26 08:02:31;;;;;;;5.97;1.30;;;;;;;16.47;47.51;100950.97;4736916;30;20032;-63
2021/05/26 08:04:56;;;;;;;5.70;1.25;;;;;;;16.52;50.75;100956.16;4737549;30;20306;-60
2021/05/26 08:07:22;;;;;;;2.55;1.20;;;;;;;16.59;51.35;100958.84;4737388;30;20254;-66
2021/05/26 08:09:47;;;;;;;6.45;0.75;;;;;;;16.63;47.92;100957.56;4751106;30;20120;-65
2021/05/26 08:12:13;;;;;;;4.07;1.20;;;;;;;16.70;47.39;100950.97;4737459;30;20039;-66
2021/05/26 08:14:39;;;;;;;2.92;1.10;;;;;;;16.77;48.92;100944.41;4737363;30;20034;-67
2021/05/26 08:17:05;;;;;;;4.07;1.00;;;;;;;16.86;50.06;100945.44;4737157;30;20099;-66
2021/05/26 08:19:30;;;;;;;2.95;1.27;;;;;;;16.91;48.24;100944.94;4737227;30;20025;-65
2021/05/26 08:22:16;;;;;;;1.83;0.90;;;;;;;17.02;48.86;100941.94;4751117;30;20059;-68
2021/05/26 08:24:42;;;;;;;3.58;1.45;;;;;;;17.07;46.95;100943.47;4737177;30;20447;-66
2021/05/26 08:27:07;;;;;;;7.97;1.00;;;;;;;17.09;47.85;100941.78;4737387;30;20033;-66
2021/05/26 08:29:34;;;;;;;1.60;1.10;;;;;;;17.13;46.33;100939.69;4737202;30;20084;-68
2021/05/26 08:32:00;;;;;;;4.35;1.63;;;;;;;17.23;48.17;100938.66;4737019;30;20033;-66
2021/05/26 08:34:26;;;;;;;3.75;1.00;;;;;;;17.27;45.70;100935.78;4737099;30;20071;-66
2021/05/26 08:36:52;;;;;;;3.78;0.90;;;;;;;17.34;46.68;100935.63;4737742;30;20108;-68
2021/05/26 08:39:17;;;;;;;3.33;1.05;;;;;;;17.39;46.78;100929.44;4736747;30;20352;-67
2021/05/26 08:41:45;;;;;;;3.30;1.10;;;;;;;17.43;45.26;100935.03;4735774;30;20032;-67
2021/05/26 08:44:13;;;;;;;2.58;1.00;;;;;;;17.46;45.67;100922.78;4736916;30;20039;-66
2021/05/26 08:46:40;;;;;;;4.80;0.98;;;;;;;17.49;46.87;100919.06;4736382;30;20449;-66
2021/05/26 08:49:06;;;;;;;5.85;1.20;;;;;;;17.57;48.40;100918.50;4736740;30;20429;-66
2021/05/26 08:51:32;;;;;;;4.68;0.90;;;;;;;17.67;46.28;100921.56;4735385;30;20094;-66
2021/05/26 08:53:58;;;;;;;4.60;0.77;;;;;;;17.77;47.21;100917.69;4736950;30;20457;-66
2021/05/26 08:56:23;;;;;;;3.30;1.33;;;;;;;17.84;46.09;100911.88;4736775;30;20064;-66
2021/05/26 08:58:48;;;;;;;2.75;1.38;;;;;;;17.85;45.23;100911.44;4750534;30;20039;-66
2021/05/26 09:01:14;;;;;;;3.20;0.90;;;;;;;17.94;47.11;100915.72;4736491;30;20120;-66
2021/05/26 09:03:39;;;;;;;2.97;1.05;;;;;;;17.93;44.73;100906.38;4736512;30;20128;-66
2021/05/26 09:06:10;;;;;;;3.60;1.20;;;;;;;18.00;45.67;100906.19;4736513;30;20044;-67
2021/05/26 09:08:45;;;;;;;2.58;0.82;;;;;;;18.04;44.67;100909.75;4736443;30;20033;-66
2021/05/26 09:11:10;;;;;;;3.80;0.95;;;;;;;18.13;46.68;100897.78;4736887;30;20056;-66
2021/05/26 09:13:41;;;;;;;4.93;1.00;;;;;;;18.20;45.94;100904.09;4736726;30;20450;-66
2021/05/26 09:16:28;;;;;;;1.57;0.77;;;;;;;18.26;47.00;100895.84;4736396;30;20036;-66
2021/05/26 09:19:04;;;;;;;4.43;1.25;;;;;;;18.34;46.32;100883.03;4736640;30;20714;-66
2021/05/26 09:21:50;;;;;;;1.50;0.57;;;;;;;18.47;44.98;100891.66;4736656;30;20025;-66
2021/05/26 09:24:18;;;;;;;4.60;0.80;;;;;;;18.57;46.72;100893.44;4740134;30;20037;-66
2021/05/26 09:27:04;;;;;;;3.63;0.80;;;;;;;18.67;46.29;100881.00;4753712;30;20337;-67
2021/05/26 09:29:34;;;;;;;4.07;0.60;;;;;;;18.75;44.92;100885.28;4738875;30;20040;-66
2021/05/26 09:32:13;;;;;;;1.30;0.73;;;;;;;18.80;44.59;100879.03;4739940;30;20028;-66
2021/05/26 09:34:43;;;;;;;2.67;1.10;;;;;;;18.90;43.81;100876.31;4740012;30;20444;-66
2021/05/26 09:37:14;;;;;;;1.63;0.88;;;;;;;18.88;41.88;100859.69;4739890;30;20117;-66
2021/05/26 09:39:54;;;;;;;1.33;0.73;;;;;;;18.90;43.43;100867.78;4740625;30;20035;-68
2021/05/26 09:42:35;;;;;;;36.60;5.13;;;;;;;18.91;42.57;100863.72;4753292;30;20033;-66
2021/05/26 09:45:10;;;;;;;5.47;1.02;;;;;;;18.89;41.05;100851.94;4753370;30;20330;-66
2021/05/26 09:47:44;;;;;;;4.32;1.00;;;;;;;18.84;40.38;100844.75;4739494;30;20044;-67
2021/05/26 09:50:36;;;;;;;2.20;0.98;;;;;;;18.83;39.81;100846.78;4739287;30;20028;-66
2021/05/26 09:53:09;;;;;;;;;;;;;;;18.83;40.23;100838.25;4739689;30;20036;-66
2021/05/26 09:55:43;;;;;;;1.67;0.77;;;;;;;18.89;41.16;100832.81;4739138;30;19982;-67
2021/05/26 09:58:18;;;;;;;10.73;1.83;;;;;;;18.99;40.38;100836.63;4739206;30;20037;-66
2021/05/26 10:00:45;;;;;;;6.97;1.10;;;;;;;19.06;38.92;100833.56;4728083;30;20040;-67
2021/05/26 10:03:11;;;;;;;2.42;0.70;;;;;;;19.12;37.80;100828.91;4739738;30;20345;-66
2021/05/26 10:05:36;;;;;;;3.10;0.95;;;;;;;19.11;37.43;100827.31;4739046;30;20028;-65
2021/05/26 10:08:06;;;;;;;2.63;1.30;;;;;;;19.12;37.42;100832.56;4753376;30;20098;-67
2021/05/26 10:10:32;;;;;;;3.70;0.63;;;;;;;19.15;38.09;100830.84;4753223;30;20086;-66
2021/05/26 10:13:04;;;;;;;3.17;1.02;;;;;;;19.14;38.13;100837.78;4739076;30;20028;-66
2021/05/26 10:15:31;;;;;;;2.83;0.70;;;;;;;19.22;39.34;100824.97;4739387;30;20330;-68
2021/05/26 10:17:59;;;;;;;3.08;0.88;;;;;;;19.31;38.39;100827.13;4739112;30;20044;-66
2021/05/26 10:20:25;;;;;;;2.80;0.88;;;;;;;19.37;38.49;100823.25;4739159;30;20032;-67
2021/05/26 10:22:53;;;;;;;1.33;0.70;;;;;;;19.37;38.36;100811.88;4738874;30;20064;-66
2021/05/26 10:25:19;;;;;;;1.25;0.50;;;;;;;19.35;36.40;100807.88;4739420;30;20107;-67
2021/05/26 10:27:47;;;;;;;2.70;1.00;;;;;;;19.37;37.86;100802.50;4752470;30;20028;-66
2021/05/26 10:30:14;;;;;;;7.55;1.20;;;;;;;19.45;37.42;100801.88;4739246;30;20422;-65
2021/05/26 10:33:02;;;;;;;5.13;1.30;;;;;;;19.60;36.64;100798.59;4752187;30;20091;-67
2021/05/26 10:35:29;;;;;;;4.78;0.90;;;;;;;19.66;38.02;100794.69;4734078;30;20028;-67
2021/05/26 10:38:07;;;;;;;1.13;0.57;;;;;;;19.67;35.58;100789.78;4738348;30;20040;-67
2021/05/26 10:40:38;;;;;;;3.00;0.90;;;;;;;19.66;36.50;100791.06;4738768;30;20330;-67
2021/05/26 10:43:12;;;;;;;3.63;0.80;;;;;;;19.59;35.53;100777.03;4738627;30;20047;-67
2021/05/26 10:45:37;;;;;;;5.60;0.60;;;;;;;19.53;34.84;100775.97;4738316;30;20033;-67
2021/05/26 10:48:03;;;;;;;3.20;0.70;;;;;;;19.48;37.39;100777.34;4738807;30;20051;-67
2021/05/26 10:50:44;;;;;;;1.80;0.90;;;;;;;19.47;36.89;100774.94;4738917;30;20082;-68
2021/05/26 10:53:12;;;;;;;3.35;0.80;;;;;;;19.55;39.31;100764.94;4738576;30;20441;-68
2021/05/26 10:55:44;;;;;;;1.38;0.50;;;;;;;19.67;39.57;100764.13;4738442;30;20037;-64
2021/05/26 10:58:19;;;;;;;1.40;0.50;;;;;;;19.85;39.29;100761.50;4738484;30;20032;-67
2021/05/26 11:01:09;;;;;;;2.30;0.82;;;;;;;19.96;36.32;100761.13;4736677;30;20040;-67
2021/05/26 11:03:36;;;;;;;2.35;0.88;;;;;;;20.01;37.50;100752.03;4738040;30;20695;-67
2021/05/26 11:06:03;;;;;;;4.00;1.20;;;;;;;20.08;36.93;100751.78;4752344;30;20421;-66
2021/05/26 11:08:29;;;;;;;1.63;0.80;;;;;;;20.08;35.52;100748.94;4752203;30;20029;-67
2021/05/26 11:10:55;;;;;;;2.25;0.95;;;;;;;20.09;37.43;100741.16;4737815;30;20044;-67
2021/05/26 11:13:20;;;;;;;1.38;0.50;;;;;;;20.14;37.15;100737.72;4736896;30;20050;-67
2021/05/26 11:15:49;;;;;;;2.70;1.10;;;;;;;20.24;38.60;100739.38;4751393;30;20329;-67
2021/05/26 11:18:40;;;;;;;2.80;0.65;;;;;;;20.32;36.27;100727.28;4737956;30;20497;-67
2021/05/26 11:21:14;;;;;;;1.23;0.75;;;;;;;20.35;34.42;100729.22;4737359;30;20047;-67
2021/05/26 11:23:40;;;;;;;2.83;0.95;;;;;;;20.33;33.96;100728.88;4736691;30;20053;-67
2021/05/26 11:26:07;;;;;;;4.18;0.90;;;;;;;20.29;34.26;100718.84;4737853;30;20090;-67